Create Tblcommutelog Verified Points Advance Search
| # | Trip ID | Id Commuter | Trip Date | Trip Num | Current Lat | Current Lng | Delta Distance | Current Time | Activity | Activity Confidence | Current Speed | |
|---|---|---|---|---|---|---|---|---|---|---|---|---|
| 69241 | 250326_731669_16595792_1649 | 731669 | (not set) | (not set) | 38.77856705812 | -77.426630195144 | 28.8874 | 2025-03-26 22:06:45.604 | in_vehicle | 100 | 9.4459395424106 | |
| 69242 | 250326_781618_16649305_1729 | 781618 | (not set) | (not set) | 39.277954326304 | -76.838163089003 | 20.138 | 2025-03-26 22:06:37.279 | in_vehicle | 100 | 8.73961751321 | |
| 69243 | 250326_700992_16557105_1726 | 700992 | (not set) | (not set) | 39.198044236446 | -77.244792480946 | 17.6312 | 2025-03-26 22:06:39.207 | in_vehicle | 100 | 0 | |
| 69244 | 250326_780947_16648617_1756 | 780947 | (not set) | (not set) | 38.887051397408 | -76.894096055102 | 7.3486 | 2025-03-26 22:08:17.529 | in_vehicle | 100 | -0.44703925898772 | |
| 69245 | 250326_774579_16642008_1732 | 774579 | (not set) | (not set) | 39.247507321836 | -76.692702335376 | 32.8929 | 2025-03-26 22:08:23.645 | in_vehicle | 100 | -0.44703925898772 | |
| 69246 | 250326_780947_16648617_1756 | 780947 | (not set) | (not set) | 38.886165151144 | -76.892583638843 | 7.3486 | 2025-03-26 22:08:23.948 | in_vehicle | 100 | -0.44703925898772 | |
| 69247 | 250326_774579_16642008_1732 | 774579 | (not set) | (not set) | 39.248819475404 | -76.689360757053 | 33.0937 | 2025-03-26 22:08:24.064 | in_vehicle | 100 | -0.44703925898772 | |
| 69248 | 250326_774579_16642008_1732 | 774579 | (not set) | (not set) | 39.248720076645 | -76.689992644292 | 33.1283 | 2025-03-26 22:08:25.102 | still | 33 | 2.3111929689665 | |
| 69249 | 250326_781975_16649666_1654 | 781975 | (not set) | (not set) | 38.652762621589 | -77.304321648908 | 27.398 | 2025-03-26 22:08:29.331 | in_vehicle | 100 | 3.64336996075 | |
| 69250 | 250326_780473_16648144_1808 | 780473 | (not set) | (not set) | 38.911816730888 | -77.038530694174 | 0 | 2025-03-26 22:08:32.917 | still | 33 | 0.53197671819539 | |
| 69251 | 250326_780473_16648144_1808 | 780473 | (not set) | (not set) | 38.911816730888 | -77.038530694174 | 0 | 2025-03-26 22:08:33.023 | still | 33 | 0.53197671819539 | |
| 69252 | 250326_776642_16644179_1712 | 776642 | (not set) | (not set) | 38.799355082703 | -77.325456986121 | 24.7812 | 2025-03-26 22:08:34.252 | in_vehicle | 100 | 6.3971317961143 | |
| 69253 | 250326_779684_16647372_1747 | 779684 | (not set) | (not set) | 39.64822455407 | -77.14213469172 | 14.6233 | 2025-03-26 22:08:34.32 | in_vehicle | 100 | 10.854113208222 | |
| 69254 | 250326_731669_16595792_1649 | 731669 | (not set) | (not set) | 38.765675137051 | -77.440648769033 | 30.2921 | 2025-03-26 22:08:36.234 | in_vehicle | 100 | 4.0322941160693 | |
| 69255 | 250326_780947_16648617_1756 | 780947 | (not set) | (not set) | 38.886752753788 | -76.889304782358 | 7.3486 | 2025-03-26 22:08:37.802 | in_vehicle | 100 | 9.4638211127701 | |
| 69256 | 250326_781975_16649666_1654 | 781975 | (not set) | (not set) | 38.651875867341 | -77.305655767097 | 27.4926 | 2025-03-26 22:08:40.227 | in_vehicle | 100 | 6.4641876849625 | |
| 69257 | 250326_753795_16619971_1723 | 753795 | (not set) | (not set) | 39.038866591877 | -77.049765059958 | 12.2814 | 2025-03-26 22:08:41.339 | on_foot | 100 | 0.40680572567883 | |
| 69258 | 250326_765830_16632736_1742 | 765830 | (not set) | (not set) | 38.879394197998 | -77.127433389128 | 3.3072 | 2025-03-26 22:08:42.904 | still | 33 | 10.371310808515 | |
| 69259 | 250326_765830_16632736_1742 | 765830 | (not set) | (not set) | 38.879394197998 | -77.127433389128 | 4.8208 | 2025-03-26 22:08:42.925 | still | 33 | 10.371310808515 | |
| 69260 | 250326_780826_16648503_1800 | 780826 | (not set) | (not set) | 38.888515360436 | -77.049125078963 | 0.939 | 2025-03-26 22:08:43.302 | on_bicycle | 100 | 1.5065223027886 |